Terminal Aerodrome Forecast
Issued by NWS

Home | Current Version | Previous Version | Text Only | Print | Product List | Glossary On
Versions: 1 2 3 4 5 6 7 8 9 10 11 12 13 14 15 16 17 18 19 20 21 22 23 24 25 26 27 28 29 30 31 32 33 34 35 36
000
FTUS43 KLOT 010300 AAB
TAFDPA
TAF AMD
KDPA 010302Z 0103/0124 VRB03KT 1 1/2SM -SN BR BKN007 OVC015
     FM010500 02007KT 1SM -SN BR OVC005
     FM010900 05011KT 1/2SM SN OVC005
     FM011500 06017G27KT 1/2SM SN OVC004
     FM011900 04020G30KT 1/2SM SN OVC004
      TEMPO 0119/0123 1/4SM SN BLSN=

USA.gov is the U.S. government's official web portal to all federal, state and local government web resources and services.